Time;durP1;ratioP1;P1;durP2;ratioP2;P2;SDS_P1;SDS_P2;PMS_P1;PMS_P2;Temp;Humidity;BMP_temperature;BMP_pressure;BME280_temperature;BME280_humidity;BME280_pressure;Samples;Min_cycle;Max_cycle;Signal;HPM_P1;HPM_P2
2023/08/11 00:01:50;;;;;;;;;;;;;;;22.74;54.17;101566.00;4149631;28;19925;-61
2023/08/11 00:03:51;;;;;;;;;;;;;;;22.74;54.55;101560.66;4149398;28;19972;-60
2023/08/11 00:05:54;;;;;;;;;;;;;;;22.75;54.19;101561.53;4148177;28;19927;-61
2023/08/11 00:07:57;;;;;;;;;;;;;;;22.73;54.30;101561.63;4148927;28;19935;-60
2023/08/11 00:09:58;;;;;;;;;;;;;;;22.73;54.63;101558.94;4149480;28;19925;-60
2023/08/11 00:12:00;;;;;;;;;;;;;;;22.72;54.47;101553.69;4147971;28;20020;-60
2023/08/11 00:14:02;;;;;;;;;;;;;;;22.72;54.20;101553.69;4149304;28;19926;-60
2023/08/11 00:16:04;;;;;;;;;;;;;;;22.72;54.71;101554.53;4148692;28;19932;-60
2023/08/11 00:18:07;;;;;;;;;;;;;;;22.71;54.27;101560.88;4149187;28;20373;-61
2023/08/11 00:20:09;;;;;;;;;;;;;;;22.71;54.40;101558.22;4147929;28;19926;-60
2023/08/11 00:22:11;;;;;;;;;;;;;;;22.71;54.17;101555.53;4149373;28;19926;-60
2023/08/11 00:24:12;;;;;;;;;;;;;;;22.71;54.64;101549.28;4148928;28;19971;-61
2023/08/11 00:26:14;;;;;;;;;;;;;;;22.71;54.33;101554.66;4148900;28;19925;-61
2023/08/11 00:28:16;;;;;;;;;;;;;;;22.69;54.42;101554.78;4149204;28;19933;-60
2023/08/11 00:30:18;;;;;;;;;;;;;;;22.69;54.40;101553.94;4149153;28;19926;-61
2023/08/11 00:32:20;;;;;;;;;;;;;;;22.69;54.54;101556.63;4148975;28;19976;-60
2023/08/11 00:34:22;;;;;;;;;;;;;;;22.69;54.55;101559.28;4148190;28;19965;-60
2023/08/11 00:36:24;;;;;;;;;;;;;;;22.68;54.45;101563.78;4148807;28;19925;-61
2023/08/11 00:38:35;;;;;;;;;;;;;;;22.67;54.49;101562.06;4149172;28;19926;-60
2023/08/11 00:40:36;;;;;;;;;;;;;;;22.67;54.71;101555.88;4148878;28;20395;-60
2023/08/11 00:42:38;;;;;;;;;;;;;;;22.66;54.59;101555.00;4149173;28;19968;-61
2023/08/11 00:44:39;;;;;;;;;;;;;;;22.66;54.54;101557.66;4148327;28;19937;-60
2023/08/11 00:46:42;;;;;;;;;;;;;;;22.65;54.55;101550.63;4148750;28;20020;-61
2023/08/11 00:48:47;;;;;;;;;;;;;;;22.65;54.52;101554.16;4148622;28;20040;-60
2023/08/11 00:50:49;;;;;;;;;;;;;;;22.66;54.50;101552.31;4149068;28;19981;-61
2023/08/11 00:52:50;;;;;;;;;;;;;;;22.65;54.78;101550.63;4148660;28;20461;-60
2023/08/11 00:54:52;;;;;;;;;;;;;;;22.65;54.63;101550.63;4148178;28;19968;-61
2023/08/11 00:56:54;;;;;;;;;;;;;;;22.64;54.57;101551.59;4148275;28;20012;-61
2023/08/11 00:58:56;;;;;;;;;;;;;;;22.62;54.54;101549.00;4148559;28;19932;-60
2023/08/11 01:00:58;;;;;;;;;;;;;;;22.62;54.62;101542.78;4148497;28;19929;-60
2023/08/11 01:03:01;;;;;;;;;;;;;;;22.62;54.87;101542.78;4148339;28;19933;-60
2023/08/11 01:05:03;;;;;;;;;;;;;;;22.61;55.02;101541.94;4147765;28;19933;-60
2023/08/11 01:07:17;;;;;;;;;;;;;;;22.62;54.65;101546.31;4148573;28;19933;-61
2023/08/11 01:09:19;;;;;;;;;;;;;;;22.61;54.89;101541.06;4148483;28;19980;-60
2023/08/11 01:11:38;;;;;;;;;;;;;;;22.60;54.80;101545.59;4148366;28;19926;-60
2023/08/11 01:13:44;;;;;;;;;;;;;;;22.60;54.77;101542.03;4148514;28;19933;-61
2023/08/11 01:15:54;;;;;;;;;;;;;;;22.59;54.76;101545.69;4131624;28;19932;-60
2023/08/11 01:17:56;;;;;;;;;;;;;;;22.59;54.97;101548.34;4131685;28;20422;-59
2023/08/11 01:19:59;;;;;;;;;;;;;;;22.58;55.03;101546.69;4132140;28;20025;-60
2023/08/11 01:22:02;;;;;;;;;;;;;;;22.57;54.72;101551.16;4132436;28;19952;-61
2023/08/11 01:24:04;;;;;;;;;;;;;;;22.57;55.21;101558.38;4132116;28;19925;-61
2023/08/11 01:26:06;;;;;;;;;;;;;;;22.56;55.04;101557.50;4129989;28;19926;-60
2023/08/11 01:28:07;;;;;;;;;;;;;;;22.56;54.96;101562.00;4132240;28;19925;-60
2023/08/11 01:30:10;;;;;;;;;;;;;;;22.56;54.70;101567.38;4131998;28;20307;-60
2023/08/11 01:32:12;;;;;;;;;;;;;;;22.56;54.80;101572.72;4131828;28;20306;-60
2023/08/11 01:34:13;;;;;;;;;;;;;;;22.56;54.99;101575.41;4131834;28;19926;-60
2023/08/11 01:36:15;;;;;;;;;;;;;;;22.54;55.01;101563.94;4131389;28;19926;-60
2023/08/11 01:38:17;;;;;;;;;;;;;;;22.54;55.04;101577.34;4131959;28;19988;-60
2023/08/11 01:40:18;;;;;;;;;;;;;;;22.53;55.21;101570.25;4131903;28;19925;-61
2023/08/11 01:42:20;;;;;;;;;;;;;;;22.53;55.14;101576.50;4132243;28;20380;-60
2023/08/11 01:44:22;;;;;;;;;;;;;;;22.53;54.81;101578.31;4131605;28;20319;-60
2023/08/11 01:46:25;;;;;;;;;;;;;;;22.53;54.97;101575.63;4131060;28;19926;-60
2023/08/11 01:48:27;;;;;;;;;;;;;;;22.51;55.11;101578.41;4132057;28;20016;-60
2023/08/11 01:50:31;;;;;;;;;;;;;;;22.51;54.83;101580.25;4131917;28;19932;-60
2023/08/11 01:52:34;;;;;;;;;;;;;;;22.51;54.95;101573.06;4131718;28;19926;-60
2023/08/11 01:54:36;;;;;;;;;;;;;;;22.50;55.02;101574.03;4131157;28;19929;-60
2023/08/11 01:56:39;;;;;;;;;;;;;;;22.49;54.97;101586.59;4131554;28;19965;-60
2023/08/11 01:58:40;;;;;;;;;;;;;;;22.49;54.84;101589.25;4131798;28;20024;-60
2023/08/11 02:00:42;;;;;;;;;;;;;;;22.48;55.00;101590.22;4131785;28;20020;-61
2023/08/11 02:02:44;;;;;;;;;;;;;;;22.48;55.08;101584.88;4132235;28;20021;-61
2023/08/11 02:04:45;;;;;;;;;;;;;;;22.48;55.00;101584.88;4147577;28;19925;-60
2023/08/11 02:06:47;;;;;;;;;;;;;;;22.48;55.14;101578.66;4147674;28;19980;-60
2023/08/11 02:08:48;;;;;;;;;;;;;;;22.47;55.21;101582.31;4147653;28;19925;-60
2023/08/11 02:10:55;;;;;;;;;;;;;;;22.46;55.08;101575.22;4147808;28;19925;-61
2023/08/11 02:12:56;;;;;;;;;;;;;;;22.46;55.09;101577.91;4148010;28;20036;-60
2023/08/11 02:14:58;;;;;;;;;;;;;;;22.45;55.28;101576.19;4146839;28;19932;-61
2023/08/11 02:16:59;;;;;;;;;;;;;;;22.44;55.11;101571.78;4147867;28;19925;-60
2023/08/11 02:19:01;;;;;;;;;;;;;;;22.44;54.91;101571.78;4147943;28;19973;-60
2023/08/11 02:21:03;;;;;;;;;;;;;;;22.43;55.11;101567.41;4147742;28;20454;-61
2023/08/11 02:23:09;;;;;;;;;;;;;;;22.43;55.32;101568.28;4147858;28;20383;-61
2023/08/11 02:25:15;;;;;;;;;;;;;;;22.42;55.27;101571.91;4147175;28;19932;-60
2023/08/11 02:27:17;;;;;;;;;;;;;;;22.40;55.35;101563.13;4147721;28;19975;-60
2023/08/11 02:29:19;;;;;;;;;;;;;;;22.41;55.19;101570.19;4147566;28;19980;-61
2023/08/11 02:31:20;;;;;;;;;;;;;;;22.41;55.38;101569.34;4150985;28;19996;-60
2023/08/11 02:33:22;;;;;;;;;;;;;;;22.41;55.38;101570.19;4151066;28;19925;-61
2023/08/11 02:35:28;;;;;;;;;;;;;;;22.40;55.45;101571.16;4150261;28;20451;-61
2023/08/11 02:37:30;;;;;;;;;;;;;;;22.39;55.09;101566.75;4150966;28;19957;-61
2023/08/11 02:39:32;;;;;;;;;;;;;;;22.40;55.16;101573.00;4150665;28;19936;-60
2023/08/11 02:41:34;;;;;;;;;;;;;;;22.40;55.38;101570.31;4150680;28;19926;-60
2023/08/11 02:43:36;;;;;;;;;;;;;;;22.38;55.42;101572.22;4150755;28;19926;-60
2023/08/11 02:45:38;;;;;;;;;;;;;;;22.39;55.36;101568.59;4150034;28;20387;-60
2023/08/11 02:47:44;;;;;;;;;;;;;;;22.38;55.29;101566.84;4150441;28;19972;-59
2023/08/11 02:49:51;;;;;;;;;;;;;;;22.37;55.38;101566.00;4150764;28;19960;-61
2023/08/11 02:51:53;;;;;;;;;;;;;;;22.37;55.43;101573.16;4150616;28;19936;-61
2023/08/11 02:53:54;;;;;;;;;;;;;;;22.37;55.31;101573.16;4150449;28;19932;-60
2023/08/11 02:55:55;;;;;;;;;;;;;;;22.37;55.34;101573.16;4149841;28;19929;-60
2023/08/11 02:58:02;;;;;;;;;;;;;;;22.37;55.30;101574.03;4150022;28;19957;-60
2023/08/11 03:00:12;;;;;;;;;;;;;;;22.37;55.36;101578.53;4150467;28;19980;-60
2023/08/11 03:02:14;;;;;;;;;;;;;;;22.35;55.36;101573.28;4150619;28;19926;-60
2023/08/11 03:04:16;;;;;;;;;;;;;;;22.36;55.58;101574.13;4150308;28;19925;-61
2023/08/11 03:06:18;;;;;;;;;;;;;;;22.36;55.62;101571.44;4149596;28;19971;-61
2023/08/11 03:08:19;;;;;;;;;;;;;;;22.34;55.20;101571.56;4150361;28;19960;-61
2023/08/11 03:10:21;;;;;;;;;;;;;;;22.34;55.36;101571.56;4150042;28;19925;-61
2023/08/11 03:12:22;;;;;;;;;;;;;;;22.33;55.67;101575.22;4150361;28;19925;-60
2023/08/11 03:14:24;;;;;;;;;;;;;;;22.32;55.72;101574.38;4149831;28;20004;-60
2023/08/11 03:16:25;;;;;;;;;;;;;;;22.33;55.51;101575.22;4149669;28;19925;-60
2023/08/11 03:18:27;;;;;;;;;;;;;;;22.32;55.71;101571.69;4150345;28;20008;-61
2023/08/11 03:20:29;;;;;;;;;;;;;;;22.32;55.65;101582.41;4150415;28;20307;-60
2023/08/11 03:22:30;;;;;;;;;;;;;;;22.33;55.38;101583.25;4150491;28;20024;-61
2023/08/11 03:24:32;;;;;;;;;;;;;;;22.32;55.50;101584.22;4148984;28;19930;-61
2023/08/11 03:26:33;;;;;;;;;;;;;;;22.33;55.58;101588.63;4149416;28;20429;-60
2023/08/11 03:28:35;;;;;;;;;;;;;;;22.32;55.78;101584.22;4149850;28;19936;-60
2023/08/11 03:30:37;;;;;;;;;;;;;;;22.31;55.56;101587.88;4149984;28;20373;-60
2023/08/11 03:32:39;;;;;;;;;;;;;;;22.30;55.91;101583.50;4149737;28;19926;-60
2023/08/11 03:34:41;;;;;;;;;;;;;;;22.29;55.85;101576.41;4149964;28;20384;-59
2023/08/11 03:36:44;;;;;;;;;;;;;;;22.30;55.53;101586.16;4149550;28;20008;-60
2023/08/11 03:38:45;;;;;;;;;;;;;;;22.30;55.84;101576.28;4149909;28;19967;-60
2023/08/11 03:40:47;;;;;;;;;;;;;;;22.27;55.83;101579.22;4149260;28;19926;-60
2023/08/11 03:42:48;;;;;;;;;;;;;;;22.28;55.83;101570.19;4149085;28;19925;-60
2023/08/11 03:44:51;;;;;;;;;;;;;;;22.28;55.75;101578.22;4149289;28;19925;-61
2023/08/11 03:46:52;;;;;;;;;;;;;;;22.28;55.88;101572.00;4149601;28;19948;-60
2023/08/11 03:48:54;;;;;;;;;;;;;;;22.26;55.60;101569.44;4149848;28;19949;-60
2023/08/11 03:50:59;;;;;;;;;;;;;;;22.28;55.88;101569.34;4150044;28;19932;-60
2023/08/11 03:53:01;;;;;;;;;;;;;;;22.27;55.80;101565.81;4149626;28;19925;-60
2023/08/11 03:55:03;;;;;;;;;;;;;;;22.26;55.55;101561.41;4149080;28;19926;-60
2023/08/11 03:57:06;;;;;;;;;;;;;;;22.26;55.63;101560.53;4149143;28;19925;-60
2023/08/11 03:59:12;;;;;;;;;;;;;;;22.25;55.79;101565.06;4149784;28;20347;-61
2023/08/11 04:01:14;;;;;;;;;;;;;;;22.25;55.62;101561.50;4149655;28;20414;-61
2023/08/11 04:03:16;;;;;;;;;;;;;;;22.25;55.79;101561.50;4149365;28;20390;-61
2023/08/11 04:05:17;;;;;;;;;;;;;;;22.24;55.57;101557.13;4148784;28;19976;-61
2023/08/11 04:07:19;;;;;;;;;;;;;;;22.23;55.87;101556.25;4149452;28;19925;-61
2023/08/11 04:09:21;;;;;;;;;;;;;;;22.23;56.01;101556.25;4149473;28;20125;-61
2023/08/11 04:11:23;;;;;;;;;;;;;;;22.22;55.95;101557.22;4148952;28;19953;-61
2023/08/11 04:13:29;;;;;;;;;;;;;;;22.23;55.66;101555.41;4149373;28;20020;-61
2023/08/11 04:15:31;;;;;;;;;;;;;;;22.24;55.64;101557.13;4148772;28;19925;-61
2023/08/11 04:17:36;;;;;;;;;;;;;;;22.23;55.77;101555.41;4149244;28;19932;-60
2023/08/11 04:19:38;;;;;;;;;;;;;;;22.22;55.85;101557.22;4149390;28;19953;-60
2023/08/11 04:21:40;;;;;;;;;;;;;;;22.22;55.99;101553.69;4149361;28;20311;-60
2023/08/11 04:23:42;;;;;;;;;;;;;;;22.22;55.93;101551.03;4149309;28;19930;-61
2023/08/11 04:25:43;;;;;;;;;;;;;;;22.22;55.87;101554.53;4148397;28;20292;-60
2023/08/11 04:27:45;;;;;;;;;;;;;;;22.21;55.92;101551.97;4148826;28;20020;-60
2023/08/11 04:29:47;;;;;;;;;;;;;;;22.20;55.80;101550.25;4149226;28;20358;-60
2023/08/11 04:31:48;;;;;;;;;;;;;;;22.20;55.94;101551.13;4149266;28;19930;-60
2023/08/11 04:33:50;;;;;;;;;;;;;;;22.19;55.98;101549.44;4149253;28;19934;-60
2023/08/11 04:35:51;;;;;;;;;;;;;;;22.20;55.79;101553.81;4148493;28;20445;-60
2023/08/11 04:37:53;;;;;;;;;;;;;;;22.21;56.00;101557.34;4149013;28;19932;-60
2023/08/11 04:39:55;;;;;;;;;;;;;;;22.20;55.94;101551.13;4148629;28;19995;-60
2023/08/11 04:41:56;;;;;;;;;;;;;;;22.19;55.88;101552.09;4141763;28;20028;-61
2023/08/11 04:43:59;;;;;;;;;;;;;;;22.20;55.74;101555.63;4132528;28;19925;-60
2023/08/11 04:46:00;;;;;;;;;;;;;;;22.18;55.93;101556.59;4132084;28;19926;-60
2023/08/11 04:48:02;;;;;;;;;;;;;;;22.19;55.78;101560.13;4132731;28;19972;-60
2023/08/11 04:50:04;;;;;;;;;;;;;;;22.18;56.03;101553.91;4132779;28;19965;-60
2023/08/11 04:52:06;;;;;;;;;;;;;;;22.18;56.00;101553.91;4132685;28;19926;-60
2023/08/11 04:54:08;;;;;;;;;;;;;;;22.18;55.96;101545.03;4132080;28;19948;-60
2023/08/11 04:56:09;;;;;;;;;;;;;;;22.18;55.80;101551.22;4132114;28;19981;-60
2023/08/11 04:58:11;;;;;;;;;;;;;;;22.17;56.05;101546.84;4132512;28;20016;-60
2023/08/11 05:00:16;;;;;;;;;;;;;;;22.17;55.86;101551.34;4147412;28;20485;-60
2023/08/11 05:02:18;;;;;;;;;;;;;;;22.17;55.86;101546.84;4132561;28;19973;-60
2023/08/11 05:04:21;;;;;;;;;;;;;;;22.17;56.05;101546.00;4145895;28;19932;-61
2023/08/11 05:06:22;;;;;;;;;;;;;;;22.17;56.07;101546.84;4148080;28;19930;-60
2023/08/11 05:08:24;;;;;;;;;;;;;;;22.16;56.06;101542.47;4148409;28;19926;-60
2023/08/11 05:10:26;;;;;;;;;;;;;;;22.17;56.07;101548.66;4148208;28;19976;-60
2023/08/11 05:12:27;;;;;;;;;;;;;;;22.16;55.90;101549.63;4148752;28;19960;-60
2023/08/11 05:14:28;;;;;;;;;;;;;;;22.16;56.19;101541.59;4148441;28;19925;-61
2023/08/11 05:16:30;;;;;;;;;;;;;;;22.16;56.08;101546.94;4147868;28;19925;-60
2023/08/11 05:18:32;;;;;;;;;;;;;;;22.17;55.96;101549.50;4148467;28;20429;-60
2023/08/11 05:20:46;;;;;;;;;;;;;;;22.16;55.74;101550.50;4148552;28;19961;-60
2023/08/11 05:22:47;;;;;;;;;;;;;;;22.17;55.81;101548.66;4148458;28;20016;-60
2023/08/11 05:24:49;;;;;;;;;;;;;;;22.16;55.95;101553.19;4148085;28;20272;-60
2023/08/11 05:26:51;;;;;;;;;;;;;;;22.17;56.19;101552.19;4147669;28;20016;-60
2023/08/11 05:28:52;;;;;;;;;;;;;;;22.16;56.16;101546.94;4148306;28;19930;-60
2023/08/11 05:30:56;;;;;;;;;;;;;;;22.17;56.00;101551.34;4148050;28;19932;-59
2023/08/11 05:32:58;;;;;;;;;;;;;;;22.17;55.93;101552.19;4148435;28;20414;-61
2023/08/11 05:34:59;;;;;;;;;;;;;;;22.17;56.02;101546.00;4148241;28;19964;-60
2023/08/11 05:37:03;;;;;;;;;;;;;;;22.15;56.03;101554.16;4147445;28;19925;-60
2023/08/11 05:39:06;;;;;;;;;;;;;;;22.16;55.75;101547.81;4147856;28;20346;-60
2023/08/11 05:41:09;;;;;;;;;;;;;;;22.17;56.21;101551.34;4148315;28;19932;-60
2023/08/11 05:43:10;;;;;;;;;;;;;;;22.16;56.20;101552.31;4148092;28;19929;-59
2023/08/11 05:45:12;;;;;;;;;;;;;;;22.17;56.02;101554.03;4147884;28;19965;-60
2023/08/11 05:47:16;;;;;;;;;;;;;;;22.16;56.35;101555.88;4147749;28;20008;-59
2023/08/11 05:49:18;;;;;;;;;;;;;;;22.16;56.02;101566.56;4148012;28;20526;-60
2023/08/11 05:51:19;;;;;;;;;;;;;;;22.17;56.23;101564.75;4148248;28;19968;-60
2023/08/11 05:53:21;;;;;;;;;;;;;;;22.16;56.19;101563.91;4147573;28;20024;-59
2023/08/11 05:55:22;;;;;;;;;;;;;;;22.17;56.09;101565.59;4147528;28;19952;-61
2023/08/11 05:57:24;;;;;;;;;;;;;;;22.17;55.93;101564.75;4148027;28;20012;-60
2023/08/11 05:59:25;;;;;;;;;;;;;;;22.17;55.96;101564.75;4147914;28;19957;-61
2023/08/11 06:01:27;;;;;;;;;;;;;;;22.17;55.95;101565.59;4147932;28;19925;-61
2023/08/11 06:03:30;;;;;;;;;;;;;;;22.17;56.25;101568.25;4147788;28;19930;-60
2023/08/11 06:05:32;;;;;;;;;;;;;;;22.17;56.00;101568.25;4149376;28;20302;-61
2023/08/11 06:07:33;;;;;;;;;;;;;;;22.17;56.14;101564.75;4150566;28;19932;-61
2023/08/11 06:09:35;;;;;;;;;;;;;;;22.16;55.94;101561.22;4151228;28;19932;-60
2023/08/11 06:11:37;;;;;;;;;;;;;;;22.17;55.99;101568.25;4149738;28;19925;-61
2023/08/11 06:13:38;;;;;;;;;;;;;;;22.18;56.15;101569.13;4151390;28;20015;-60
2023/08/11 06:15:40;;;;;;;;;;;;;;;22.17;56.31;101568.25;4150600;28;19925;-60
2023/08/11 06:17:41;;;;;;;;;;;;;;;22.18;56.20;101572.66;4151144;28;19925;-60
2023/08/11 06:19:43;;;;;;;;;;;;;;;22.18;56.04;101567.31;4150907;28;19934;-60
2023/08/11 06:21:45;;;;;;;;;;;;;;;22.17;56.14;101564.75;4150839;28;19957;-60
2023/08/11 06:23:47;;;;;;;;;;;;;;;22.17;55.98;101568.25;4151002;28;19979;-60
2023/08/11 06:25:49;;;;;;;;;;;;;;;22.18;56.23;101569.13;4150256;28;19961;-61
2023/08/11 06:27:51;;;;;;;;;;;;;;;22.17;55.81;101565.59;4149627;28;19940;-60
2023/08/11 06:29:52;;;;;;;;;;;;;;;22.18;56.10;101569.97;4151071;28;20350;-60
2023/08/11 06:31:54;;;;;;;;;;;;;;;22.17;55.99;101570.94;4150794;28;19925;-60
2023/08/11 06:33:55;;;;;;;;;;;;;;;22.18;56.12;101578.03;4150920;28;20403;-60
2023/08/11 06:35:57;;;;;;;;;;;;;;;22.18;56.31;101575.34;4150267;28;19980;-60
2023/08/11 06:37:59;;;;;;;;;;;;;;;22.20;56.12;101574.38;4150720;28;19925;-60
2023/08/11 06:40:01;;;;;;;;;;;;;;;22.18;56.49;101569.97;4151029;28;19926;-60
2023/08/11 06:42:02;;;;;;;;;;;;;;;22.20;56.09;101577.06;4150750;28;19932;-60
2023/08/11 06:44:07;;;;;;;;;;;;;;;22.20;56.64;101577.06;4150952;28;19940;-60
2023/08/11 06:46:09;;;;;;;;;;;;;;;22.18;56.46;101580.69;4150259;28;20436;-60
2023/08/11 06:48:11;;;;;;;;;;;;;;;22.19;56.50;101584.25;4150477;28;20310;-60
2023/08/11 06:50:13;;;;;;;;;;;;;;;22.20;56.37;101582.41;4150171;28;19930;-60
2023/08/11 06:52:15;;;;;;;;;;;;;;;22.19;56.29;101576.22;4149487;28;20008;-60
2023/08/11 06:54:16;;;;;;;;;;;;;;;22.22;55.99;101599.25;4150589;28;19932;-60
2023/08/11 06:56:18;;;;;;;;;;;;;;;22.23;56.61;101606.31;4149929;28;19925;-60
2023/08/11 06:58:19;;;;;;;;;;;;;;;22.24;56.65;101606.22;4149145;28;19983;-61
2023/08/11 07:00:25;;;;;;;;;;;;;;;22.25;56.63;101613.28;4150766;28;19929;-60
2023/08/11 07:02:26;;;;;;;;;;;;;;;22.25;56.84;101607.94;4150488;28;19925;-60
2023/08/11 07:04:28;;;;;;;;;;;;;;;22.25;56.55;101609.72;4150258;28;19972;-60
2023/08/11 07:06:30;;;;;;;;;;;;;;;22.26;56.21;101611.44;4149858;28;20346;-61
2023/08/11 07:08:31;;;;;;;;;;;;;;;22.27;56.31;101611.38;4150401;28;20302;-60
2023/08/11 07:10:33;;;;;;;;;;;;;;;22.27;56.62;101613.16;4150279;28;20062;-61
2023/08/11 07:12:34;;;;;;;;;;;;;;;22.28;56.70;101617.56;4150385;28;19925;-60
2023/08/11 07:14:36;;;;;;;;;;;;;;;22.26;56.58;101628.41;4150231;28;19972;-60
2023/08/11 07:16:38;;;;;;;;;;;;;;;22.27;56.29;101629.25;4149387;28;19980;-60
2023/08/11 07:18:39;;;;;;;;;;;;;;;22.27;56.23;101624.75;4150068;28;19925;-60
2023/08/11 07:20:42;;;;;;;;;;;;;;;22.27;56.51;101626.56;4139103;28;19926;-59
2023/08/11 07:22:43;;;;;;;;;;;;;;;22.27;56.38;101629.25;4149181;28;19930;-60
2023/08/11 07:24:45;;;;;;;;;;;;;;;22.28;56.32;101630.97;4133829;28;19926;-61
2023/08/11 07:26:46;;;;;;;;;;;;;;;22.29;56.39;101636.22;4143139;28;20287;-60
2023/08/11 07:28:49;;;;;;;;;;;;;;;22.30;56.68;101634.41;4148974;28;19968;-60
2023/08/11 07:30:51;;;;;;;;;;;;;;;22.32;56.79;101646.72;4150067;28;19979;-61
2023/08/11 07:32:52;;;;;;;;;;;;;;;22.33;56.73;101650.25;4150082;28;19926;-61
2023/08/11 07:34:56;;;;;;;;;;;;;;;22.31;56.40;101650.38;4149860;28;20405;-60
2023/08/11 07:36:57;;;;;;;;;;;;;;;22.33;56.73;101652.94;4148246;28;20346;-60
2023/08/11 07:38:59;;;;;;;;;;;;;;;22.32;56.82;101651.22;4149932;28;19949;-61
2023/08/11 07:41:20;;;;;;;;;;;;;;;22.33;56.50;101653.81;4150053;28;19972;-60
2023/08/11 07:43:22;;;;;;;;;;;;;;;22.36;56.88;101659.91;4150061;28;19926;-60
2023/08/11 07:45:24;;;;;;;;;;;;;;;22.37;57.19;101662.50;4148605;28;20426;-61
2023/08/11 07:47:25;;;;;;;;;;;;;;;22.40;57.34;101661.44;4148622;28;20008;-61
2023/08/11 07:49:27;;;;;;;;;;;;;;;22.41;57.34;101657.81;4149347;28;19932;-60
2023/08/11 07:51:28;;;;;;;;;;;;;;;22.44;56.98;101662.94;4149635;28;20090;-60
2023/08/11 07:53:31;;;;;;;;;;;;;;;22.46;57.38;101656.47;4149607;28;20012;-60
2023/08/11 07:55:33;;;;;;;;;;;;;;;22.47;56.87;101666.25;4149625;28;20020;-61
2023/08/11 07:57:34;;;;;;;;;;;;;;;22.47;57.23;101662.72;4149019;28;19926;-60
2023/08/11 07:59:36;;;;;;;;;;;;;;;22.49;57.11;101666.13;4149825;28;19980;-60
2023/08/11 08:01:38;;;;;;;;;;;;;;;22.49;57.24;101669.69;4149398;28;20303;-60
2023/08/11 08:03:40;;;;;;;;;;;;;;;22.51;57.35;101668.72;4139841;28;19980;-61
2023/08/11 08:05:42;;;;;;;;;;;;;;;22.52;57.25;101670.41;4133071;28;20041;-61
2023/08/11 08:07:44;;;;;;;;;;;;;;;22.53;57.15;101674.81;4131413;28;19936;-60
2023/08/11 08:09:45;;;;;;;;;;;;;;;22.54;56.96;101682.75;4141584;28;19971;-59
2023/08/11 08:11:47;;;;;;;;;;;;;;;22.56;57.14;101678.13;4149085;28;20446;-60
2023/08/11 08:13:49;;;;;;;;;;;;;;;22.58;57.30;101673.53;4149340;28;19925;-61
2023/08/11 08:15:50;;;;;;;;;;;;;;;22.59;57.02;101669.88;4148598;28;19930;-61
2023/08/11 08:17:52;;;;;;;;;;;;;;;22.61;57.41;101678.69;4148867;28;20346;-60
2023/08/11 08:19:54;;;;;;;;;;;;;;;22.63;57.15;101674.03;4149505;28;19929;-60
2023/08/11 08:21:55;;;;;;;;;;;;;;;22.67;57.67;101676.53;4149009;28;19969;-60
2023/08/11 08:23:57;;;;;;;;;;;;;;;22.67;57.21;101671.16;4149216;28;20019;-60
2023/08/11 08:25:58;;;;;;;;;;;;;;;22.65;57.44;101672.13;4148657;28;20390;-60
2023/08/11 08:28:00;;;;;;;;;;;;;;;22.66;57.02;101672.97;4148031;28;20020;-60
2023/08/11 08:30:11;;;;;;;;;;;;;;;22.68;57.37;101668.34;4149117;28;20005;-61
2023/08/11 08:32:13;;;;;;;;;;;;;;;22.68;57.36;101663.00;4148631;28;20411;-60
2023/08/11 08:34:15;;;;;;;;;;;;;;;22.71;57.30;101661.91;4143357;28;19949;-60
2023/08/11 08:36:16;;;;;;;;;;;;;;;22.71;57.48;101656.56;4132201;28;20012;-60
2023/08/11 08:38:18;;;;;;;;;;;;;;;22.72;57.30;101666.31;4132754;28;19926;-60
2023/08/11 08:40:19;;;;;;;;;;;;;;;22.72;57.18;101671.69;4133043;28;20300;-60
2023/08/11 08:42:21;;;;;;;;;;;;;;;22.73;57.65;101663.50;4132580;28;20387;-58
2023/08/11 08:44:23;;;;;;;;;;;;;;;22.75;57.22;101666.09;4132574;28;19926;-60
2023/08/11 08:46:29;;;;;;;;;;;;;;;22.75;57.09;101668.78;4131581;28;20389;-60
2023/08/11 08:48:35;;;;;;;;;;;;;;;22.77;57.59;101670.38;4132655;28;19932;-60
2023/08/11 08:50:38;;;;;;;;;;;;;;;22.78;57.30;101665.88;4132774;28;19929;-60
2023/08/11 08:52:39;;;;;;;;;;;;;;;22.79;57.41;101667.59;4132564;28;19930;-60
2023/08/11 08:54:42;;;;;;;;;;;;;;;22.80;56.84;101662.09;4132422;28;19925;-59
2023/08/11 08:56:43;;;;;;;;;;;;;;;22.82;57.17;101662.00;4131704;28;20419;-60
2023/08/11 08:58:45;;;;;;;;;;;;;;;22.83;57.40;101662.84;4132627;28;19968;-60
2023/08/11 09:00:46;;;;;;;;;;;;;;;22.83;57.24;101668.22;4132257;28;19926;-59
2023/08/11 09:02:49;;;;;;;;;;;;;;;22.83;56.76;101671.75;4133411;28;19926;-60
2023/08/11 09:04:51;;;;;;;;;;;;;;;22.84;57.29;101670.78;4147530;28;20325;-60
2023/08/11 09:06:53;;;;;;;;;;;;;;;22.84;57.02;101672.63;4147848;28;20068;-59
2023/08/11 09:08:55;;;;;;;;;;;;;;;22.86;57.45;101674.22;4148345;28;20020;-60
2023/08/11 09:10:56;;;;;;;;;;;;;;;22.87;57.14;101669.69;4148739;28;20005;-58
2023/08/11 09:12:58;;;;;;;;;;;;;;;22.81;57.58;101660.28;4148563;28;20024;-59
2023/08/11 09:15:05;;;;;;;;;;;;;;;22.90;57.11;101666.81;4147989;28;19926;-60
2023/08/11 09:17:07;;;;;;;;;;;;;;;22.91;57.67;101663.16;4147779;28;19936;-59
2023/08/11 09:19:10;;;;;;;;;;;;;;;22.91;57.18;101666.69;4148647;28;20367;-62
2023/08/11 09:21:12;;;;;;;;;;;;;;;22.92;56.76;101664.88;4148574;28;19979;-60
2023/08/11 09:23:16;;;;;;;;;;;;;;;22.92;57.09;101665.72;4148295;28;20446;-60
2023/08/11 09:25:18;;;;;;;;;;;;;;;22.94;57.23;101668.28;4148557;28;19929;-60
2023/08/11 09:27:20;;;;;;;;;;;;;;;22.95;57.03;101672.69;4147553;28;19936;-60
2023/08/11 09:29:22;;;;;;;;;;;;;;;22.95;56.88;101678.94;4148340;28;19926;-60
2023/08/11 09:31:24;;;;;;;;;;;;;;;22.96;57.27;101683.28;4148212;28;19964;-60
2023/08/11 09:33:26;;;;;;;;;;;;;;;22.98;57.19;101686.72;4147992;28;19933;-60
2023/08/11 09:35:28;;;;;;;;;;;;;;;22.98;57.33;101692.09;4148277;28;19925;-60
2023/08/11 09:37:30;;;;;;;;;;;;;;;23.01;57.28;101688.34;4147357;28;19929;-59
2023/08/11 09:39:31;;;;;;;;;;;;;;;23.03;57.38;101702.50;4148184;28;20260;-59
2023/08/11 09:41:38;;;;;;;;;;;;;;;23.04;57.29;101703.34;4148369;28;19926;-60
2023/08/11 09:43:49;;;;;;;;;;;;;;;23.05;57.46;101694.31;4148083;28;20001;-60
2023/08/11 09:45:51;;;;;;;;;;;;;;;23.06;56.99;101706.78;4147714;28;19929;-60
2023/08/11 09:47:53;;;;;;;;;;;;;;;23.07;57.30;101695.09;4147333;28;19925;-59
2023/08/11 09:49:55;;;;;;;;;;;;;;;23.08;57.12;101694.97;4147980;28;20395;-60
2023/08/11 09:51:57;;;;;;;;;;;;;;;23.09;57.22;101693.16;4148271;28;19960;-59
2023/08/11 09:54:03;;;;;;;;;;;;;;;23.11;57.29;101704.59;4148134;28;19926;-60
2023/08/11 09:56:05;;;;;;;;;;;;;;;23.14;57.52;101712.44;4148041;28;19930;-60
2023/08/11 09:58:08;;;;;;;;;;;;;;;23.15;57.50;101711.50;4147303;28;19925;-60
2023/08/11 10:00:14;;;;;;;;;;;;;;;23.15;57.11;101703.44;4147939;28;19926;-60
2023/08/11 10:02:20;;;;;;;;;;;;;;;23.16;57.13;101704.28;4148401;28;19925;-60
2023/08/11 10:04:29;;;;;;;;;;;;;;;23.14;57.02;101707.94;4147772;28;20360;-60
2023/08/11 10:06:31;;;;;;;;;;;;;;;23.17;57.26;101704.19;4147507;28;20315;-61
2023/08/11 10:08:33;;;;;;;;;;;;;;;23.18;57.13;101710.44;4147775;28;19947;-60
2023/08/11 10:10:35;;;;;;;;;;;;;;;23.17;57.04;101712.25;4147852;28;20415;-60
2023/08/11 10:12:40;;;;;;;;;;;;;;;23.19;57.12;101714.84;4147645;28;19930;-60
2023/08/11 10:14:42;;;;;;;;;;;;;;;23.21;57.42;101711.06;4147436;28;20008;-60
2023/08/11 10:16:44;;;;;;;;;;;;;;;23.20;57.16;101709.34;4147227;28;19929;-60
2023/08/11 10:18:45;;;;;;;;;;;;;;;23.20;57.20;101703.13;4147908;28;20019;-60
2023/08/11 10:20:50;;;;;;;;;;;;;;;23.20;57.52;101697.78;4148241;28;19925;-60
2023/08/11 10:22:52;;;;;;;;;;;;;;;23.20;57.62;101693.25;4147794;28;19960;-60
2023/08/11 10:24:53;;;;;;;;;;;;;;;23.20;57.41;101689.72;4147908;28;19925;-60
2023/08/11 10:26:55;;;;;;;;;;;;;;;23.22;57.42;101683.25;4147150;28;20012;-60
2023/08/11 10:28:57;;;;;;;;;;;;;;;23.22;57.25;101683.25;4147284;28;19930;-60